createdAt,value
2018-12-31T00:01:07.128Z,22.13
2018-12-31T00:03:33.539Z,22.00
2018-12-31T00:05:59.931Z,25.07
2018-12-31T00:08:26.327Z,26.40
2018-12-31T00:10:52.745Z,27.83
2018-12-31T00:13:19.214Z,22.50
2018-12-31T00:15:45.718Z,24.40
2018-12-31T00:18:12.099Z,27.93
2018-12-31T00:20:38.529Z,20.90
2018-12-31T00:23:04.916Z,19.50
2018-12-31T00:25:31.348Z,23.83
2018-12-31T00:27:57.806Z,16.13
2018-12-31T00:30:24.200Z,26.03
2018-12-31T00:32:50.638Z,13.10
2018-12-31T00:35:17.157Z,13.90
2018-12-31T00:37:43.601Z,22.20
2018-12-31T00:40:10.156Z,20.67
2018-12-31T00:42:36.583Z,24.77
2018-12-31T00:45:03.486Z,14.43
2018-12-31T00:47:29.897Z,20.53
2018-12-31T00:49:56.327Z,19.00
2018-12-31T00:52:22.716Z,22.93
2018-12-31T00:54:49.112Z,24.20
2018-12-31T00:57:15.543Z,16.67
2018-12-31T00:59:41.941Z,31.87
2018-12-31T01:02:08.444Z,61.63
2018-12-31T01:04:34.875Z,145.40
2018-12-31T01:07:01.256Z,92.77
2018-12-31T01:09:27.642Z,35.17
2018-12-31T01:11:54.112Z,27.73
2018-12-31T01:14:20.523Z,27.67
2018-12-31T01:16:46.996Z,22.33
2018-12-31T01:19:13.444Z,17.23
2018-12-31T01:21:39.912Z,23.83
2018-12-31T01:24:06.299Z,26.50
2018-12-31T01:26:32.729Z,25.90
2018-12-31T01:28:59.308Z,29.70
2018-12-31T01:31:25.711Z,19.40
2018-12-31T01:33:52.675Z,24.07
2018-12-31T01:36:19.238Z,16.60
2018-12-31T01:38:45.700Z,21.77
2018-12-31T01:41:12.417Z,26.33
2018-12-31T01:43:38.827Z,19.27
2018-12-31T01:46:06.030Z,19.87
2018-12-31T01:48:32.525Z,20.53
2018-12-31T01:50:58.910Z,20.03
2018-12-31T01:53:25.322Z,16.07
2018-12-31T01:55:51.952Z,22.63
2018-12-31T01:58:18.381Z,23.03
2018-12-31T02:00:44.789Z,10.87
2018-12-31T02:03:11.399Z,18.07
2018-12-31T02:05:37.796Z,16.67
2018-12-31T02:08:04.179Z,26.80
2018-12-31T02:10:30.644Z,24.20
2018-12-31T02:12:57.050Z,24.13
2018-12-31T02:15:23.457Z,15.63
2018-12-31T02:17:49.851Z,26.33
2018-12-31T02:20:16.233Z,17.07
2018-12-31T02:22:42.615Z,16.93
2018-12-31T02:25:09.064Z,23.13
2018-12-31T02:27:35.439Z,21.03
2018-12-31T02:30:01.928Z,26.70
2018-12-31T02:32:28.377Z,18.80
2018-12-31T02:34:55.035Z,25.13
2018-12-31T02:37:21.453Z,27.27
2018-12-31T02:39:49.545Z,30.37
2018-12-31T02:42:15.987Z,17.33
2018-12-31T02:44:42.379Z,22.60
2018-12-31T02:47:08.805Z,18.70
2018-12-31T02:49:35.214Z,30.70
2018-12-31T02:52:01.596Z,20.77
2018-12-31T02:54:28.036Z,22.50
2018-12-31T02:56:54.456Z,20.80
2018-12-31T02:59:20.868Z,26.17
2018-12-31T03:01:47.291Z,18.10
2018-12-31T03:04:13.700Z,23.30
2018-12-31T03:06:40.117Z,20.47
2018-12-31T03:09:06.525Z,18.30
2018-12-31T03:11:32.900Z,23.50
2018-12-31T03:13:59.288Z,15.93
2018-12-31T03:16:25.855Z,23.40
2018-12-31T03:18:52.227Z,20.13
2018-12-31T03:21:18.645Z,20.70
2018-12-31T03:23:45.051Z,31.57
2018-12-31T03:26:11.434Z,17.30
2018-12-31T03:28:37.845Z,32.33
2018-12-31T03:31:04.296Z,18.00
2018-12-31T03:33:30.761Z,19.87
2018-12-31T03:35:57.140Z,16.63
2018-12-31T03:38:23.536Z,23.00
2018-12-31T03:40:49.918Z,24.23
2018-12-31T03:43:16.325Z,22.90
2018-12-31T03:45:42.748Z,19.23
2018-12-31T03:48:09.161Z,18.70
2018-12-31T03:50:35.574Z,17.63
2018-12-31T03:53:02.277Z,23.90
2018-12-31T03:55:28.680Z,25.97
2018-12-31T03:57:55.055Z,14.83
2018-12-31T04:00:21.679Z,16.40
2018-12-31T04:02:48.097Z,27.10
2018-12-31T04:05:14.556Z,18.80
2018-12-31T04:07:40.958Z,26.33
2018-12-31T04:10:07.327Z,17.10
2018-12-31T04:12:33.744Z,25.10
2018-12-31T04:15:00.400Z,18.60
2018-12-31T04:17:26.780Z,18.17
2018-12-31T04:19:53.193Z,22.60
2018-12-31T04:22:19.858Z,32.67
2018-12-31T04:24:46.333Z,40.87
2018-12-31T04:27:12.754Z,25.53
2018-12-31T04:29:39.155Z,25.07
2018-12-31T04:32:05.534Z,28.47
2018-12-31T04:34:31.923Z,20.67
2018-12-31T04:36:58.377Z,21.93
2018-12-31T04:39:24.752Z,26.67
2018-12-31T04:41:51.135Z,27.53
2018-12-31T04:44:17.794Z,23.00
2018-12-31T04:46:44.169Z,31.87
2018-12-31T04:49:10.549Z,24.03
2018-12-31T04:51:37.164Z,20.40
2018-12-31T04:54:03.564Z,30.43
2018-12-31T04:56:29.944Z,22.67
2018-12-31T04:58:56.341Z,23.00
2018-12-31T05:01:22.812Z,22.90
2018-12-31T05:03:49.298Z,26.23
2018-12-31T05:06:16.000Z,21.30
2018-12-31T05:08:42.405Z,26.30
2018-12-31T05:11:08.809Z,28.90
2018-12-31T05:13:35.259Z,33.63
2018-12-31T05:16:01.635Z,23.70
2018-12-31T05:18:28.072Z,28.30
2018-12-31T05:20:54.704Z,21.13
2018-12-31T05:23:21.087Z,22.53
2018-12-31T05:25:47.497Z,24.90
2018-12-31T05:28:13.891Z,23.70
2018-12-31T05:30:40.306Z,25.27
2018-12-31T05:33:06.682Z,25.73
2018-12-31T05:35:33.104Z,25.33
2018-12-31T05:37:59.513Z,27.90
2018-12-31T05:40:25.884Z,29.00
2018-12-31T05:42:52.358Z,27.63
2018-12-31T05:45:18.779Z,24.23
2018-12-31T05:47:45.163Z,26.63
2018-12-31T05:50:11.593Z,24.33
2018-12-31T05:52:37.967Z,29.40
2018-12-31T05:55:04.380Z,34.80
2018-12-31T05:57:30.796Z,21.00
2018-12-31T05:59:57.213Z,22.00
2018-12-31T06:02:23.592Z,27.27
2018-12-31T06:04:50.021Z,21.17
2018-12-31T06:07:16.442Z,27.50
2018-12-31T06:09:42.853Z,28.67
2018-12-31T06:12:09.243Z,27.40
2018-12-31T06:14:35.640Z,30.93
2018-12-31T06:17:02.049Z,34.90
2018-12-31T06:19:28.455Z,33.50
2018-12-31T06:21:54.840Z,31.93
2018-12-31T06:24:21.220Z,26.13
2018-12-31T06:26:47.615Z,25.40
2018-12-31T06:29:14.033Z,23.93
2018-12-31T06:31:40.433Z,30.80
2018-12-31T06:34:06.877Z,21.80
2018-12-31T06:36:33.304Z,25.10
2018-12-31T06:38:59.732Z,31.83
2018-12-31T06:41:26.490Z,29.57
2018-12-31T06:43:53.049Z,19.00
2018-12-31T06:46:19.525Z,25.57
2018-12-31T06:48:45.952Z,26.50
2018-12-31T06:51:12.364Z,26.90
2018-12-31T06:53:38.778Z,25.77
2018-12-31T06:56:05.260Z,28.97
2018-12-31T06:58:31.644Z,25.07
2018-12-31T07:00:58.038Z,22.30
2018-12-31T07:03:24.674Z,21.53
2018-12-31T07:05:51.089Z,20.37
2018-12-31T07:08:17.496Z,26.07
2018-12-31T07:10:43.916Z,28.17
2018-12-31T07:13:10.288Z,27.97
2018-12-31T07:15:36.663Z,23.13
2018-12-31T07:18:03.269Z,31.67
2018-12-31T07:20:29.664Z,20.33
2018-12-31T07:22:56.048Z,26.37
2018-12-31T07:25:22.492Z,25.73
2018-12-31T07:27:48.871Z,25.30
2018-12-31T07:30:15.284Z,28.70
2018-12-31T07:32:42.009Z,29.57
2018-12-31T07:35:08.388Z,28.40
2018-12-31T07:37:34.767Z,30.57
2018-12-31T07:40:01.201Z,27.10
2018-12-31T07:42:27.608Z,21.17
2018-12-31T07:44:53.987Z,26.00
2018-12-31T07:47:20.828Z,26.83
2018-12-31T07:49:47.206Z,29.60
2018-12-31T07:52:13.616Z,22.13
2018-12-31T07:54:40.322Z,25.00
2018-12-31T07:57:06.728Z,24.83
2018-12-31T07:59:33.107Z,21.50
2018-12-31T08:01:59.496Z,23.67
2018-12-31T08:04:25.879Z,32.60
2018-12-31T08:06:52.292Z,24.03
2018-12-31T08:09:18.903Z,22.87
2018-12-31T08:11:45.288Z,28.67
2018-12-31T08:14:11.697Z,20.30
2018-12-31T08:16:38.152Z,37.17
2018-12-31T08:19:04.528Z,25.07
2018-12-31T08:21:30.903Z,22.30
2018-12-31T08:23:57.343Z,31.57
2018-12-31T08:26:23.807Z,19.90
2018-12-31T08:28:50.187Z,36.57
2018-12-31T08:31:16.652Z,20.30
2018-12-31T08:33:43.060Z,25.80
2018-12-31T08:36:09.460Z,29.73
2018-12-31T08:38:35.860Z,33.20
2018-12-31T08:41:02.240Z,26.80
2018-12-31T08:43:28.667Z,29.03
2018-12-31T08:45:58.425Z,31.33
2018-12-31T08:48:24.908Z,21.73
2018-12-31T08:50:51.279Z,34.03
2018-12-31T08:53:18.005Z,29.70
2018-12-31T08:55:44.440Z,33.83
2018-12-31T08:58:10.847Z,23.97
2018-12-31T09:00:37.277Z,20.77
2018-12-31T09:03:03.663Z,20.97
2018-12-31T09:05:30.047Z,29.07
2018-12-31T09:07:56.452Z,28.93
2018-12-31T09:10:22.827Z,23.77
2018-12-31T09:12:49.208Z,28.70
2018-12-31T09:15:15.926Z,21.60
2018-12-31T09:17:42.412Z,26.77
2018-12-31T09:20:08.787Z,24.63
2018-12-31T09:22:35.278Z,23.27
2018-12-31T09:25:01.956Z,18.70
2018-12-31T09:27:28.881Z,19.47
2018-12-31T09:29:55.720Z,22.83
2018-12-31T09:32:22.192Z,23.33
2018-12-31T09:34:48.563Z,21.53
2018-12-31T09:37:15.211Z,19.30
2018-12-31T09:39:41.628Z,26.17
2018-12-31T09:42:08.036Z,32.10
2018-12-31T09:44:34.482Z,26.07
2018-12-31T09:47:00.851Z,32.70
2018-12-31T09:49:27.310Z,27.40
2018-12-31T09:51:53.920Z,39.83
2018-12-31T09:54:20.298Z,35.10
2018-12-31T09:56:46.712Z,32.63
2018-12-31T09:59:13.137Z,36.17
2018-12-31T10:01:39.520Z,35.60
2018-12-31T10:04:05.901Z,30.20
2018-12-31T10:06:32.376Z,30.87
2018-12-31T10:08:58.751Z,40.27
2018-12-31T10:11:25.139Z,29.13
2018-12-31T10:13:51.538Z,32.13
2018-12-31T10:16:17.924Z,36.83
2018-12-31T10:18:44.305Z,34.53
2018-12-31T10:21:11.015Z,41.00
2018-12-31T10:23:37.397Z,32.90
2018-12-31T10:26:03.780Z,35.50
2018-12-31T10:28:30.523Z,29.07
2018-12-31T10:30:56.932Z,33.53
2018-12-31T10:33:23.318Z,35.70
2018-12-31T10:35:49.792Z,39.70
2018-12-31T10:38:16.294Z,30.90
2018-12-31T10:40:42.698Z,29.30
2018-12-31T10:43:09.186Z,31.70
2018-12-31T10:45:35.567Z,29.30
2018-12-31T10:48:01.989Z,25.97
2018-12-31T10:50:28.449Z,26.70
2018-12-31T10:52:54.858Z,33.57
2018-12-31T10:55:21.236Z,26.57
2018-12-31T10:57:47.793Z,27.13
2018-12-31T11:00:14.265Z,30.67
2018-12-31T11:02:40.647Z,25.73
2018-12-31T11:05:07.069Z,24.53
2018-12-31T11:07:33.444Z,20.20
2018-12-31T11:09:59.829Z,18.80
2018-12-31T11:12:26.256Z,32.30
2018-12-31T11:14:52.668Z,26.83
2018-12-31T11:17:19.043Z,25.70
2018-12-31T11:19:45.449Z,20.77
2018-12-31T11:22:11.822Z,26.40
2018-12-31T11:24:38.249Z,41.63
2018-12-31T11:27:04.956Z,45.97
2018-12-31T11:29:31.336Z,35.00
2018-12-31T11:31:57.716Z,24.57
2018-12-31T11:34:24.156Z,27.93
2018-12-31T11:36:50.543Z,75.07
2018-12-31T11:39:16.935Z,29.30
2018-12-31T11:41:43.397Z,27.80
2018-12-31T11:44:09.803Z,25.13
2018-12-31T11:46:36.294Z,30.33
2018-12-31T11:49:02.932Z,23.20
2018-12-31T11:51:29.380Z,25.33
2018-12-31T11:53:55.756Z,20.33
2018-12-31T11:56:22.473Z,28.80
2018-12-31T11:58:48.876Z,25.13
2018-12-31T12:01:15.292Z,22.57
2018-12-31T12:03:41.779Z,29.47
2018-12-31T12:06:08.159Z,28.13
2018-12-31T12:08:34.544Z,28.10
2018-12-31T12:11:00.985Z,26.33
2018-12-31T12:13:27.789Z,27.77
2018-12-31T12:15:54.331Z,26.37
2018-12-31T12:18:21.084Z,24.73
2018-12-31T12:20:47.525Z,27.67
2018-12-31T12:23:14.034Z,29.90
2018-12-31T12:25:40.653Z,24.83
2018-12-31T12:28:07.428Z,21.60
2018-12-31T12:30:33.848Z,24.03
2018-12-31T12:33:00.479Z,23.93
2018-12-31T12:35:26.924Z,21.37
2018-12-31T12:37:56.180Z,23.37
2018-12-31T12:40:24.595Z,22.87
2018-12-31T12:42:52.205Z,20.07
2018-12-31T12:45:19.051Z,26.73
2018-12-31T12:47:46.175Z,20.90
2018-12-31T12:50:12.555Z,25.43
2018-12-31T12:52:38.980Z,18.60
2018-12-31T12:55:05.801Z,19.63
2018-12-31T12:57:32.181Z,23.60
2018-12-31T12:59:58.573Z,20.40
2018-12-31T13:02:25.265Z,16.00
2018-12-31T13:04:51.646Z,18.63
2018-12-31T13:07:18.071Z,21.13
2018-12-31T13:09:44.559Z,18.27
2018-12-31T13:12:10.947Z,27.23
2018-12-31T13:14:37.370Z,20.73
2018-12-31T13:17:03.912Z,19.97
2018-12-31T13:19:30.408Z,22.60
2018-12-31T13:21:56.829Z,22.37
2018-12-31T13:24:23.564Z,19.37
2018-12-31T13:26:50.055Z,21.67
2018-12-31T13:29:16.444Z,25.77
2018-12-31T13:31:42.888Z,16.47
2018-12-31T13:34:09.381Z,17.53
2018-12-31T13:36:35.897Z,15.77
2018-12-31T13:39:05.049Z,15.97
2018-12-31T13:41:31.484Z,21.03
2018-12-31T13:43:57.864Z,18.20
2018-12-31T13:46:24.433Z,16.70
2018-12-31T13:48:50.848Z,20.23
2018-12-31T13:51:17.223Z,19.10
2018-12-31T13:53:43.697Z,20.70
2018-12-31T13:56:10.112Z,22.70
2018-12-31T13:58:36.625Z,19.37
2018-12-31T14:01:03.145Z,19.50
2018-12-31T14:03:29.519Z,21.10
2018-12-31T14:05:55.907Z,11.37
2018-12-31T14:08:22.684Z,16.23
2018-12-31T14:10:49.197Z,14.30
2018-12-31T14:13:15.616Z,12.60
2018-12-31T14:15:42.282Z,16.50
2018-12-31T14:18:08.792Z,11.50
2018-12-31T14:20:35.361Z,12.77
2018-12-31T14:23:02.067Z,21.17
2018-12-31T14:25:28.451Z,10.93
2018-12-31T14:27:54.832Z,14.83
2018-12-31T14:30:21.612Z,11.90
2018-12-31T14:32:48.091Z,11.80
2018-12-31T14:35:14.469Z,12.03
2018-12-31T14:37:40.910Z,16.63
2018-12-31T14:40:07.718Z,17.60
2018-12-31T14:42:34.137Z,17.27
2018-12-31T14:45:00.821Z,13.97
2018-12-31T14:47:27.301Z,16.53
2018-12-31T14:49:56.854Z,23.97
2018-12-31T14:52:23.659Z,19.40
2018-12-31T14:54:50.092Z,28.63
2018-12-31T14:57:16.505Z,19.93
2018-12-31T14:59:43.008Z,28.10
2018-12-31T15:02:09.426Z,22.67
2018-12-31T15:04:35.841Z,28.97
2018-12-31T15:07:02.564Z,29.80
2018-12-31T15:09:29.040Z,32.43
2018-12-31T15:11:55.449Z,44.03
2018-12-31T15:14:22.054Z,40.67
2018-12-31T15:16:48.577Z,37.77
2018-12-31T15:19:14.984Z,50.10
2018-12-31T15:21:41.405Z,61.53
2018-12-31T15:24:08.149Z,56.03
2018-12-31T15:26:34.527Z,40.83
2018-12-31T15:29:00.984Z,31.20
2018-12-31T15:31:27.364Z,45.30
2018-12-31T15:33:53.780Z,155.17
2018-12-31T15:36:20.532Z,140.80
2018-12-31T15:38:47.445Z,168.57
2018-12-31T15:41:13.928Z,107.50
2018-12-31T15:43:40.347Z,271.43
2018-12-31T15:46:06.847Z,126.67
2018-12-31T15:48:33.333Z,60.83
2018-12-31T15:50:59.759Z,49.63
2018-12-31T15:53:26.575Z,57.90
2018-12-31T15:55:53.113Z,67.13
2018-12-31T15:58:19.511Z,96.83
2018-12-31T16:00:45.926Z,83.47
2018-12-31T16:03:12.339Z,75.97
2018-12-31T16:05:38.775Z,103.90
2018-12-31T16:08:05.157Z,73.43
2018-12-31T16:10:31.569Z,214.87
2018-12-31T16:12:58.174Z,63.40
2018-12-31T16:15:24.551Z,90.90
2018-12-31T16:17:50.927Z,68.20
2018-12-31T16:20:17.368Z,87.27
2018-12-31T16:22:43.751Z,101.03
2018-12-31T16:25:10.331Z,82.67
2018-12-31T16:27:36.801Z,71.40
2018-12-31T16:30:03.988Z,80.97
2018-12-31T16:32:30.367Z,76.63
2018-12-31T16:34:56.826Z,83.07
2018-12-31T16:37:23.340Z,107.77
2018-12-31T16:39:50.204Z,82.53
2018-12-31T16:42:16.695Z,69.17
2018-12-31T16:44:43.081Z,90.57
2018-12-31T16:47:09.495Z,113.63
2018-12-31T16:49:36.071Z,419.87
2018-12-31T16:52:02.696Z,192.87
2018-12-31T16:54:29.897Z,118.27
2018-12-31T16:56:56.732Z,96.10
2018-12-31T16:59:23.269Z,96.00
2018-12-31T17:01:49.643Z,85.83
2018-12-31T17:04:16.068Z,97.83
2018-12-31T17:06:42.484Z,77.60
2018-12-31T17:09:09.154Z,85.17
2018-12-31T17:11:35.663Z,88.17
2018-12-31T17:14:02.076Z,85.10
2018-12-31T17:16:28.447Z,70.47
2018-12-31T17:18:54.879Z,85.97
2018-12-31T17:21:21.281Z,86.17
2018-12-31T17:23:47.691Z,84.07
2018-12-31T17:26:14.723Z,70.10
2018-12-31T17:28:41.301Z,79.77
2018-12-31T17:31:07.675Z,85.80
2018-12-31T17:33:34.147Z,80.20
2018-12-31T17:36:00.558Z,99.00
2018-12-31T17:38:27.013Z,90.30
2018-12-31T17:40:53.849Z,107.17
2018-12-31T17:43:20.260Z,105.97
2018-12-31T17:45:46.816Z,101.00
2018-12-31T17:48:13.249Z,104.70
2018-12-31T17:50:39.636Z,96.10
2018-12-31T17:53:06.018Z,123.90
2018-12-31T17:55:32.772Z,163.50
2018-12-31T17:57:59.240Z,160.37
2018-12-31T18:00:25.723Z,124.33
2018-12-31T18:02:52.378Z,136.73
2018-12-31T18:05:18.759Z,144.57
2018-12-31T18:07:45.158Z,159.03
2018-12-31T18:10:11.582Z,117.60
2018-12-31T18:12:38.260Z,129.00
2018-12-31T18:15:04.939Z,129.50
2018-12-31T18:17:31.579Z,130.63
2018-12-31T18:19:58.857Z,135.27
2018-12-31T18:22:25.451Z,157.93
2018-12-31T18:24:51.895Z,172.37
2018-12-31T18:27:18.375Z,168.53
2018-12-31T18:29:44.789Z,171.37
2018-12-31T18:32:11.253Z,145.50
2018-12-31T18:34:37.632Z,174.27
2018-12-31T18:37:04.054Z,158.60
2018-12-31T18:39:30.464Z,161.70
2018-12-31T18:41:57.149Z,158.57
2018-12-31T18:44:23.561Z,133.37
2018-12-31T18:46:50.076Z,137.53
2018-12-31T18:49:16.451Z,214.30
2018-12-31T18:51:42.871Z,133.67
2018-12-31T18:54:09.273Z,146.23
2018-12-31T18:56:35.655Z,150.50
2018-12-31T18:59:02.108Z,121.10
2018-12-31T19:01:28.840Z,120.50
2018-12-31T19:03:55.219Z,144.80
2018-12-31T19:06:21.599Z,250.67
2018-12-31T19:08:47.999Z,171.20
2018-12-31T19:11:14.410Z,150.20
2018-12-31T19:13:40.812Z,196.77
2018-12-31T19:16:07.510Z,247.03
2018-12-31T19:18:33.926Z,190.77
2018-12-31T19:21:00.487Z,147.13
2018-12-31T19:23:26.883Z,150.00
2018-12-31T19:25:53.301Z,157.30
2018-12-31T19:28:20.201Z,148.63
2018-12-31T19:30:46.645Z,130.93
2018-12-31T19:33:13.114Z,175.63
2018-12-31T19:35:39.615Z,114.30
2018-12-31T19:38:06.356Z,99.83
2018-12-31T19:40:32.737Z,105.77
2018-12-31T19:42:59.115Z,138.20
2018-12-31T19:45:25.860Z,107.37
2018-12-31T19:47:52.247Z,107.80
2018-12-31T19:50:18.640Z,121.20
2018-12-31T19:52:45.041Z,118.23
2018-12-31T19:55:11.470Z,111.70
2018-12-31T19:57:37.895Z,125.73
2018-12-31T20:00:06.305Z,118.10
2018-12-31T20:02:32.860Z,119.07
2018-12-31T20:04:59.271Z,111.97
2018-12-31T20:07:25.988Z,103.23
2018-12-31T20:09:52.375Z,108.00
2018-12-31T20:12:18.797Z,364.57
2018-12-31T20:14:45.644Z,676.43
2018-12-31T20:17:12.064Z,461.53
2018-12-31T20:19:38.547Z,421.63
2018-12-31T20:22:04.959Z,406.23
2018-12-31T20:24:31.479Z,388.70
2018-12-31T20:26:57.990Z,225.57
2018-12-31T20:29:24.527Z,189.57
2018-12-31T20:31:51.052Z,365.00
2018-12-31T20:34:17.477Z,515.60
2018-12-31T20:36:44.083Z,411.97
2018-12-31T20:39:30.465Z,160.60
2018-12-31T20:42:16.807Z,344.47
2018-12-31T20:45:03.211Z,188.23
2018-12-31T20:47:49.822Z,206.53
2018-12-31T20:50:36.114Z,195.27
2018-12-31T20:53:22.632Z,419.67
2018-12-31T20:56:08.945Z,130.13
2018-12-31T20:58:55.357Z,138.90
